createdAt,value
2019-01-25T04:26:34.964Z,0.30
2019-01-25T04:29:05.374Z,0.50
2019-01-25T04:31:35.652Z,0.50
2019-01-25T04:34:10.439Z,0.60
2019-01-25T04:36:40.782Z,0.20
2019-01-25T04:39:11.161Z,0.10
2019-01-25T04:41:41.486Z,-0.40
2019-01-25T04:44:11.763Z,-0.40
2019-01-25T04:46:42.072Z,-0.30
2019-01-25T04:49:12.363Z,-0.10
2019-01-25T04:51:42.665Z,-0.10
2019-01-25T04:54:12.943Z,-0.10
2019-01-25T04:56:43.273Z,0.00
2019-01-25T04:59:13.550Z,0.10
2019-01-25T05:01:43.870Z,-0.30
2019-01-25T05:04:14.158Z,0.00
2019-01-25T05:06:44.480Z,0.20
2019-01-25T05:09:14.745Z,0.40
2019-01-25T05:11:45.100Z,0.30
2019-01-25T05:14:15.898Z,0.40
2019-01-25T05:16:46.352Z,0.50
2019-01-25T05:19:16.701Z,0.10
2019-01-25T05:21:47.002Z,0.20
2019-01-25T05:24:17.745Z,0.20
2019-01-25T05:26:48.417Z,0.20
2019-01-25T05:29:22.596Z,0.00
2019-01-25T05:31:52.902Z,-0.20
2019-01-25T05:34:23.344Z,-0.30
2019-01-25T05:36:53.685Z,-0.30
2019-01-25T05:39:23.984Z,-0.60
2019-01-25T05:41:54.293Z,-0.60
2019-01-25T05:44:24.588Z,-0.80
2019-01-25T05:46:54.976Z,-0.70
2019-01-25T05:49:25.707Z,-0.50
2019-01-25T05:51:56.965Z,-0.30
2019-01-25T05:54:27.234Z,-0.40
2019-01-25T05:56:57.733Z,-0.50
2019-01-25T05:59:28.006Z,-0.40
2019-01-25T06:01:58.278Z,-0.10
2019-01-25T06:04:34.513Z,-0.20
2019-01-25T06:07:05.054Z,0.00
2019-01-25T06:09:35.456Z,0.30
2019-01-25T06:12:05.720Z,0.20
2019-01-25T06:14:36.006Z,0.20
2019-01-25T06:17:06.290Z,0.10
2019-01-25T06:19:39.467Z,0.10
2019-01-25T06:22:09.829Z,0.00
2019-01-25T06:24:40.122Z,0.20
2019-01-25T06:27:10.493Z,0.40
2019-01-25T06:29:40.803Z,0.70
2019-01-25T06:32:11.093Z,0.70
2019-01-25T06:34:41.392Z,0.40
2019-01-25T06:37:11.693Z,0.30
2019-01-25T06:39:41.989Z,0.30
2019-01-25T06:42:12.248Z,0.40
2019-01-25T06:44:42.613Z,0.30
2019-01-25T06:47:12.867Z,0.20
2019-01-25T06:49:43.164Z,0.30
2019-01-25T06:52:13.433Z,0.10
2019-01-25T06:54:43.749Z,-0.10
2019-01-25T06:57:31.568Z,0.00
2019-01-25T07:00:01.880Z,0.20
2019-01-25T07:02:36.010Z,0.40
2019-01-25T07:05:07.020Z,0.60
2019-01-25T07:07:39.158Z,0.50
2019-01-25T07:10:15.809Z,0.60
2019-01-25T07:12:46.075Z,0.40
2019-01-25T07:15:19.582Z,0.10
2019-01-25T07:17:49.836Z,0.10
2019-01-25T07:20:20.117Z,0.30
2019-01-25T07:22:50.402Z,0.30
2019-01-25T07:25:20.693Z,0.50
2019-01-25T07:27:50.959Z,0.50
2019-01-25T07:30:21.268Z,0.40
2019-01-25T07:32:51.530Z,0.30
2019-01-25T07:35:21.844Z,0.40
2019-01-25T07:37:52.117Z,0.60
2019-01-25T07:40:22.427Z,0.70
2019-01-25T07:42:52.746Z,0.50
2019-01-25T07:45:23.111Z,0.60
2019-01-25T07:47:53.409Z,0.60
2019-01-25T07:50:23.665Z,0.80
2019-01-25T07:52:54.018Z,0.80
2019-01-25T07:55:25.243Z,0.60
2019-01-25T07:57:55.511Z,0.80
2019-01-25T08:00:25.807Z,0.80
2019-01-25T08:02:56.061Z,0.50
2019-01-25T08:05:26.355Z,0.80
2019-01-25T08:07:56.623Z,0.80
2019-01-25T08:10:26.923Z,0.90
2019-01-25T08:12:57.192Z,0.80
2019-01-25T08:15:27.615Z,0.70
2019-01-25T08:17:57.884Z,0.90
2019-01-25T08:20:28.248Z,0.90
2019-01-25T08:22:58.515Z,1.00
2019-01-25T08:25:28.778Z,1.10
2019-01-25T08:27:59.625Z,0.90
2019-01-25T08:30:29.874Z,0.80
2019-01-25T08:33:00.152Z,0.80
2019-01-25T08:35:30.492Z,0.70
2019-01-25T08:38:00.761Z,0.70
2019-01-25T08:40:31.033Z,0.80
2019-01-25T08:43:01.328Z,0.90
2019-01-25T08:45:31.622Z,1.00
2019-01-25T08:48:01.921Z,1.00
2019-01-25T08:50:32.228Z,1.10
2019-01-25T08:53:02.620Z,1.10
2019-01-25T08:55:33.112Z,1.20
2019-01-25T08:58:03.397Z,0.90
2019-01-25T09:00:33.666Z,1.20
2019-01-25T09:03:04.027Z,1.20
2019-01-25T09:05:34.299Z,0.80
2019-01-25T09:08:04.604Z,1.00
2019-01-25T09:10:34.979Z,1.00
2019-01-25T09:13:05.375Z,1.00
2019-01-25T09:15:35.881Z,1.10
2019-01-25T09:18:06.308Z,1.20
2019-01-25T09:20:37.657Z,1.10
2019-01-25T09:23:07.959Z,1.30
2019-01-25T09:25:39.237Z,1.20
2019-01-25T09:28:09.563Z,1.30
2019-01-25T09:30:39.871Z,1.20
2019-01-25T09:33:10.215Z,1.30
2019-01-25T09:35:40.539Z,1.60
2019-01-25T09:38:10.860Z,1.60
2019-01-25T09:40:41.248Z,1.40
2019-01-25T09:43:12.556Z,1.50
2019-01-25T09:45:42.824Z,1.40
2019-01-25T09:48:13.116Z,1.40
2019-01-25T09:50:43.410Z,1.60
2019-01-25T09:53:14.660Z,1.50
2019-01-25T09:55:44.977Z,1.60
2019-01-25T09:58:16.925Z,1.60
2019-01-25T10:01:08.688Z,1.80
2019-01-25T10:03:38.952Z,1.70
2019-01-25T10:06:09.236Z,1.70
2019-01-25T10:08:39.498Z,1.90
2019-01-25T10:11:09.794Z,2.00
2019-01-25T10:13:40.057Z,2.00
2019-01-25T10:16:10.368Z,1.80
2019-01-25T10:18:40.702Z,2.00
2019-01-25T10:21:10.996Z,2.20
2019-01-25T10:23:41.266Z,2.10
2019-01-25T10:26:11.560Z,2.20
2019-01-25T10:28:41.853Z,2.40
2019-01-25T10:31:12.157Z,2.30
2019-01-25T10:33:42.546Z,2.20
2019-01-25T10:36:12.851Z,2.20
2019-01-25T10:38:43.157Z,2.30
2019-01-25T10:41:13.469Z,2.30
2019-01-25T10:43:43.776Z,2.40
2019-01-25T10:46:14.109Z,2.30
2019-01-25T10:48:44.389Z,2.30
2019-01-25T10:51:14.693Z,2.40
2019-01-25T10:53:44.993Z,1.80
2019-01-25T10:56:16.274Z,1.80
2019-01-25T10:58:46.568Z,2.10
2019-01-25T11:01:16.892Z,1.80
2019-01-25T11:03:47.147Z,2.00
2019-01-25T11:06:17.441Z,1.70
2019-01-25T11:08:47.789Z,2.00
2019-01-25T11:11:18.087Z,2.10
2019-01-25T11:13:48.356Z,2.20
2019-01-25T11:16:18.697Z,2.50
2019-01-25T11:18:49.037Z,2.70
2019-01-25T11:21:19.423Z,2.60
2019-01-25T11:23:49.821Z,2.90
2019-01-25T11:26:20.132Z,2.90
2019-01-25T11:28:50.405Z,2.60
2019-01-25T11:31:21.203Z,2.80
2019-01-25T11:33:51.766Z,2.80
2019-01-25T11:36:22.098Z,2.80
2019-01-25T11:38:52.381Z,3.00
2019-01-25T11:41:22.841Z,2.80
2019-01-25T11:43:53.122Z,2.70
2019-01-25T11:46:23.428Z,2.70
2019-01-25T11:48:53.692Z,2.90
2019-01-25T11:51:24.718Z,3.00
2019-01-25T11:53:55.439Z,2.90
2019-01-25T11:56:26.901Z,3.00
2019-01-25T11:58:57.484Z,2.90
2019-01-25T12:01:28.679Z,3.00
2019-01-25T12:04:01.706Z,3.20
2019-01-25T12:06:36.098Z,3.20
2019-01-25T12:09:13.355Z,2.80
2019-01-25T12:11:44.068Z,3.10
2019-01-25T12:14:20.858Z,3.10
2019-01-25T12:16:54.989Z,3.20
2019-01-25T12:19:26.974Z,3.00
2019-01-25T12:22:00.115Z,3.20
2019-01-25T12:24:30.517Z,3.30
2019-01-25T12:27:01.044Z,3.50
2019-01-25T12:29:38.543Z,3.80
2019-01-25T12:32:08.935Z,4.10
2019-01-25T12:34:39.231Z,3.80
2019-01-25T12:37:09.730Z,4.00
2019-01-25T12:39:40.041Z,4.10
2019-01-25T12:42:10.357Z,4.10
2019-01-25T12:44:42.692Z,4.10
2019-01-25T12:47:13.757Z,4.20
2019-01-25T12:49:44.030Z,4.20
2019-01-25T12:52:14.513Z,4.10
2019-01-25T12:54:44.795Z,4.10
2019-01-25T12:57:15.052Z,4.20
2019-01-25T12:59:45.353Z,4.20
2019-01-25T13:02:15.631Z,4.20
2019-01-25T13:04:45.940Z,4.00
2019-01-25T13:07:16.224Z,4.00
2019-01-25T13:09:46.520Z,4.00
2019-01-25T13:12:16.809Z,4.10
2019-01-25T13:14:47.105Z,4.00
2019-01-25T13:17:17.381Z,4.20
2019-01-25T13:19:47.811Z,4.00
2019-01-25T13:22:18.078Z,4.10
2019-01-25T13:24:48.403Z,4.20
2019-01-25T13:27:18.705Z,4.20
2019-01-25T13:29:49.066Z,4.10
2019-01-25T13:32:19.826Z,4.20
2019-01-25T13:34:50.108Z,4.10
2019-01-25T13:37:20.384Z,4.10
2019-01-25T13:39:50.696Z,4.00
2019-01-25T13:42:21.777Z,4.00
2019-01-25T13:44:52.105Z,4.10
2019-01-25T13:47:22.400Z,4.10
2019-01-25T13:49:52.823Z,4.10
2019-01-25T13:52:23.095Z,3.80
2019-01-25T13:54:54.813Z,4.00
2019-01-25T13:57:25.420Z,4.10
2019-01-25T13:59:57.262Z,4.20
2019-01-25T14:02:27.828Z,4.10
2019-01-25T14:04:59.733Z,4.20
2019-01-25T14:07:30.154Z,4.10
2019-01-25T14:10:00.507Z,4.00
2019-01-25T14:12:31.881Z,4.10
2019-01-25T14:15:02.211Z,4.40
2019-01-25T14:17:33.787Z,4.40
2019-01-25T14:20:08.317Z,4.60
2019-01-25T14:22:38.618Z,4.50
2019-01-25T14:25:09.624Z,4.20
2019-01-25T14:27:40.070Z,4.30
2019-01-25T14:30:17.764Z,4.30
2019-01-25T14:32:48.117Z,4.40
2019-01-25T14:35:18.679Z,4.20
2019-01-25T14:37:48.967Z,4.00
2019-01-25T14:40:21.003Z,4.20
2019-01-25T14:42:51.583Z,4.30
2019-01-25T14:45:22.277Z,4.40
2019-01-25T14:47:52.758Z,4.40
2019-01-25T14:50:24.501Z,4.00
2019-01-25T14:52:55.021Z,3.80
2019-01-25T14:55:25.558Z,4.00
2019-01-25T14:57:58.389Z,3.80
2019-01-25T15:00:29.788Z,3.80
2019-01-25T15:03:02.530Z,4.00
2019-01-25T15:05:34.875Z,3.90
2019-01-25T15:08:16.380Z,3.90
2019-01-25T15:10:51.295Z,3.60
2019-01-25T15:13:23.513Z,3.70
2019-01-25T15:15:56.928Z,3.60
2019-01-25T15:18:27.520Z,3.80
2019-01-25T15:20:59.561Z,3.80
2019-01-25T15:23:32.281Z,3.90
2019-01-25T15:26:02.967Z,4.00
2019-01-25T15:28:34.236Z,4.00
2019-01-25T15:31:04.966Z,4.00
2019-01-25T15:33:35.773Z,3.90
2019-01-25T15:36:06.673Z,3.80
2019-01-25T15:38:41.500Z,3.80
2019-01-25T15:41:13.917Z,3.80
2019-01-25T15:43:45.323Z,3.90
2019-01-25T15:46:16.070Z,3.70
2019-01-25T15:48:46.416Z,3.60
2019-01-25T15:51:16.768Z,3.50
2019-01-25T15:53:47.138Z,3.60
2019-01-25T15:56:17.400Z,3.80
2019-01-25T15:58:47.707Z,3.90
2019-01-25T16:01:18.675Z,3.80
2019-01-25T16:03:49.086Z,3.60
2019-01-25T16:06:19.387Z,3.50
2019-01-25T16:08:49.773Z,3.20
2019-01-25T16:11:20.578Z,3.10
2019-01-25T16:13:51.132Z,3.10
2019-01-25T16:16:21.533Z,3.00
2019-01-25T16:18:51.860Z,2.90
2019-01-25T16:21:22.757Z,2.90
2019-01-25T16:23:54.463Z,2.80
2019-01-25T16:26:24.809Z,2.80
2019-01-25T16:28:55.122Z,2.80
2019-01-25T16:31:25.430Z,2.80
2019-01-25T16:33:56.045Z,2.80
2019-01-25T16:36:26.941Z,2.70
2019-01-25T16:39:00.114Z,2.70
2019-01-25T16:41:30.491Z,2.60
2019-01-25T16:44:01.700Z,2.50
2019-01-25T16:46:33.078Z,2.60
2019-01-25T16:49:03.749Z,2.60
2019-01-25T16:51:34.025Z,2.60
2019-01-25T16:54:04.565Z,2.50
2019-01-25T16:56:35.673Z,2.60
2019-01-25T16:59:06.556Z,2.60
2019-01-25T17:01:36.962Z,2.50
2019-01-25T17:04:08.287Z,2.60
2019-01-25T17:06:39.326Z,2.60
2019-01-25T17:09:10.242Z,2.50
2019-01-25T17:11:40.904Z,2.50
2019-01-25T17:14:11.269Z,2.50
2019-01-25T17:16:41.913Z,2.50
2019-01-25T17:19:12.729Z,2.50
2019-01-25T17:21:43.085Z,2.60
2019-01-25T17:24:13.397Z,2.60
2019-01-25T17:26:43.758Z,2.70
2019-01-25T17:29:15.262Z,2.70
2019-01-25T17:31:45.721Z,2.60
2019-01-25T17:34:16.999Z,2.70
2019-01-25T17:36:47.444Z,2.70
2019-01-25T17:39:18.278Z,2.70
2019-01-25T17:41:49.691Z,2.60
2019-01-25T17:44:20.235Z,2.60
2019-01-25T17:46:50.527Z,2.50
2019-01-25T17:49:20.962Z,2.50
2019-01-25T17:51:51.282Z,2.60
2019-01-25T17:54:21.583Z,2.60
2019-01-25T17:56:51.958Z,2.60
2019-01-25T17:59:22.275Z,2.60
2019-01-25T18:01:52.576Z,2.50
2019-01-25T18:04:22.837Z,2.50
2019-01-25T18:06:53.125Z,2.50
2019-01-25T18:09:23.398Z,2.50
2019-01-25T18:11:53.711Z,2.50
2019-01-25T18:14:23.979Z,2.60
2019-01-25T18:16:54.308Z,2.60
2019-01-25T18:19:24.764Z,2.70
2019-01-25T18:21:55.078Z,2.50
2019-01-25T18:24:25.414Z,2.50
2019-01-25T18:26:55.699Z,2.60
2019-01-25T18:29:47.381Z,2.50
2019-01-25T18:32:18.091Z,2.50
2019-01-25T18:34:48.371Z,2.50
2019-01-25T18:37:20.309Z,2.50
2019-01-25T18:39:51.676Z,2.50
2019-01-25T18:42:23.570Z,2.60
2019-01-25T18:44:56.828Z,2.50
2019-01-25T18:47:26.921Z,2.50
2019-01-25T18:49:58.121Z,2.40
2019-01-25T18:52:28.470Z,2.30
2019-01-25T18:54:58.836Z,2.40
2019-01-25T18:57:29.127Z,2.40
2019-01-25T18:59:59.405Z,2.40
2019-01-25T19:02:29.784Z,2.40
2019-01-25T19:05:00.089Z,2.40
2019-01-25T19:07:30.447Z,2.30
2019-01-25T19:10:00.949Z,2.20
2019-01-25T19:12:32.037Z,2.30
2019-01-25T19:15:04.641Z,2.30
2019-01-25T19:17:35.625Z,2.40
2019-01-25T19:20:10.450Z,2.40
2019-01-25T19:22:41.215Z,2.40
2019-01-25T19:25:11.923Z,2.30
2019-01-25T19:27:43.218Z,2.10
2019-01-25T19:30:24.907Z,2.10
2019-01-25T19:32:55.422Z,2.00
2019-01-25T19:35:26.089Z,2.00
2019-01-25T19:37:58.279Z,2.00
2019-01-25T19:40:29.984Z,1.80
2019-01-25T19:43:00.281Z,1.90
2019-01-25T19:45:30.983Z,1.90
2019-01-25T19:48:01.366Z,1.90
2019-01-25T19:50:31.766Z,1.90
2019-01-25T19:53:02.105Z,1.80
2019-01-25T19:55:32.529Z,1.80
2019-01-25T19:58:02.950Z,1.80
2019-01-25T20:00:35.952Z,1.70
2019-01-25T20:03:07.384Z,1.70
2019-01-25T20:05:37.763Z,1.70
2019-01-25T20:08:08.263Z,1.70
2019-01-25T20:10:38.734Z,1.50
2019-01-25T20:13:10.029Z,1.60
2019-01-25T20:15:40.411Z,1.60
2019-01-25T20:18:10.864Z,1.60
2019-01-25T20:20:41.189Z,1.60
2019-01-25T20:23:11.498Z,1.60
2019-01-25T20:25:41.822Z,1.60
2019-01-25T20:28:12.265Z,1.50
2019-01-25T20:30:49.414Z,1.50
2019-01-25T20:33:14.531Z,1.60
2019-01-25T20:35:44.845Z,1.60
2019-01-25T20:38:15.146Z,1.60
2019-01-25T20:40:45.418Z,1.60
2019-01-25T20:43:15.718Z,1.60
2019-01-25T20:45:46.042Z,1.60
2019-01-25T20:48:16.532Z,1.50
2019-01-25T20:50:46.798Z,1.50
2019-01-25T20:53:17.198Z,1.40
2019-01-25T20:55:49.981Z,1.60
2019-01-25T20:58:20.270Z,1.50
2019-01-25T21:00:51.526Z,1.50
2019-01-25T21:03:22.932Z,1.70
2019-01-25T21:05:53.403Z,1.80
2019-01-25T21:08:24.426Z,1.90
2019-01-25T21:10:54.842Z,1.90
2019-01-25T21:13:25.236Z,1.80
2019-01-25T21:15:55.562Z,1.90
2019-01-25T21:18:25.849Z,1.90
2019-01-25T21:20:56.176Z,1.70
2019-01-25T21:23:26.738Z,1.70
2019-01-25T21:26:18.639Z,1.70
2019-01-25T21:28:52.712Z,1.60
2019-01-25T21:31:24.385Z,1.80
2019-01-25T21:33:56.342Z,2.00
2019-01-25T21:36:26.791Z,1.90
2019-01-25T21:38:57.192Z,1.90
2019-01-25T21:41:27.953Z,1.80
2019-01-25T21:43:58.794Z,1.70
2019-01-25T21:46:29.488Z,1.70
2019-01-25T21:49:00.117Z,1.70
2019-01-25T21:51:30.690Z,1.70
2019-01-25T21:54:03.839Z,1.80
2019-01-25T21:56:38.559Z,1.90
2019-01-25T21:59:09.578Z,2.00
2019-01-25T22:01:40.154Z,1.90
2019-01-25T22:04:10.841Z,1.70
2019-01-25T22:06:41.368Z,1.70
2019-01-25T22:09:37.946Z,1.60
2019-01-25T22:12:10.977Z,1.60
2019-01-25T22:14:46.575Z,1.60
2019-01-25T22:17:40.817Z,1.50
2019-01-25T22:20:18.126Z,1.50
2019-01-25T22:22:55.246Z,1.50
2019-01-25T22:25:25.846Z,1.50
2019-01-25T22:27:57.911Z,1.60
2019-01-25T22:30:31.095Z,1.60
2019-01-25T22:33:03.448Z,1.50
2019-01-25T22:35:34.499Z,1.50
2019-01-25T22:38:05.179Z,1.50
2019-01-25T22:40:35.593Z,1.50
2019-01-25T22:43:06.359Z,1.50
2019-01-25T22:45:36.773Z,1.50
2019-01-25T22:48:07.086Z,1.50
2019-01-25T22:50:38.505Z,1.50
2019-01-25T22:53:08.833Z,1.50
2019-01-25T22:55:39.470Z,1.50
2019-01-25T22:58:10.342Z,1.50
2019-01-25T23:01:04.379Z,1.60
2019-01-25T23:04:04.332Z,1.60
2019-01-25T23:06:49.922Z,1.60
2019-01-25T23:09:29.677Z,1.70
2019-01-25T23:11:59.959Z,1.70
2019-01-25T23:14:30.247Z,1.70
2019-01-25T23:17:00.529Z,1.60
2019-01-25T23:19:32.600Z,1.60
2019-01-25T23:22:02.856Z,1.70
2019-01-25T23:24:33.157Z,1.70
2019-01-25T23:27:03.416Z,1.60
2019-01-25T23:29:33.734Z,1.60
2019-01-25T23:32:05.159Z,1.70
2019-01-25T23:34:36.514Z,1.60
2019-01-25T23:37:06.828Z,1.80
2019-01-25T23:39:37.468Z,1.80
2019-01-25T23:42:07.832Z,1.70
2019-01-25T23:44:38.127Z,1.80
2019-01-25T23:47:08.441Z,1.80
2019-01-25T23:49:39.217Z,1.80
2019-01-25T23:52:09.445Z,1.80
2019-01-25T23:54:39.931Z,1.80
2019-01-25T23:57:10.406Z,1.90
2019-01-25T23:59:40.796Z,1.90
